Time;durP1;ratioP1;P1;durP2;ratioP2;P2;SDS_P1;SDS_P2;PMS_P1;PMS_P2;Temp;Humidity;BMP_temperature;BMP_pressure;BME280_temperature;BME280_humidity;BME280_pressure;Samples;Min_cycle;Max_cycle;Signal;HPM_P1;HPM_P2
2023/04/07 00:04:12;;;;;;;18.35;15.70;;;6.20;99.90;;;;;;5054957;23;20105;-92
2023/04/07 00:06:39;;;;;;;16.38;14.98;;;6.20;99.90;;;;;;4961192;28;20114;-93
2023/04/07 00:09:05;;;;;;;16.48;14.70;;;6.20;99.90;;;;;;4945070;28;20118;-92
2023/04/07 00:11:32;;;;;;;16.90;14.82;;;6.20;99.90;;;;;;4944979;28;20510;-91
2023/04/07 00:13:58;;;;;;;21.60;15.43;;;6.10;99.90;;;;;;4945062;28;20054;-91
2023/04/07 00:16:25;;;;;;;18.80;15.18;;;6.10;99.90;;;;;;4960855;28;20484;-90
2023/04/07 00:18:51;;;;;;;22.10;16.42;;;6.10;99.90;;;;;;4944986;28;20030;-89
2023/04/07 00:21:18;;;;;;;16.77;15.10;;;6.10;99.90;;;;;;4943734;28;20527;-92
2023/04/07 00:23:45;;;;;;;16.38;14.88;;;6.10;99.90;;;;;;4944822;28;20030;-92
2023/04/07 00:26:12;;;;;;;16.83;15.05;;;6.10;99.90;;;;;;4944699;28;20030;-91
2023/04/07 00:28:41;;;;;;;16.50;14.82;;;6.10;99.90;;;;;;4961477;28;20480;-90
2023/04/07 00:31:08;;;;;;;16.92;15.30;;;6.20;99.90;;;;;;4944884;28;20066;-92
2023/04/07 00:33:34;;;;;;;18.30;15.15;;;6.10;99.90;;;;;;4960554;28;20042;-90
2023/04/07 00:36:01;;;;;;;16.27;14.75;;;6.10;99.90;;;;;;4944569;28;20373;-90
2023/04/07 00:38:27;;;;;;;17.15;15.30;;;6.10;99.90;;;;;;4960420;28;20042;-92
2023/04/07 00:41:00;;;;;;;16.75;15.00;;;6.00;99.90;;;;;;4944484;28;20468;-89
2023/04/07 00:43:27;;;;;;;16.95;15.25;;;6.10;99.90;;;;;;4960379;28;20050;-91
2023/04/07 00:45:54;;;;;;;18.30;14.98;;;6.10;99.90;;;;;;4944966;28;20403;-90
2023/04/07 00:48:21;;;;;;;16.15;14.65;;;6.10;99.90;;;;;;4960257;28;20037;-91
2023/04/07 00:50:47;;;;;;;16.65;14.77;;;6.00;99.90;;;;;;4944200;28;20396;-92
2023/04/07 00:53:15;;;;;;;16.15;14.65;;;6.00;99.90;;;;;;4960061;28;20031;-91
2023/04/07 00:55:41;;;;;;;16.25;14.90;;;6.10;99.90;;;;;;4944156;28;20443;-92
2023/04/07 00:58:08;;;;;;;16.08;14.40;;;6.10;99.90;;;;;;4959928;28;20039;-93
2023/04/07 01:00:41;;;;;;;15.40;14.13;;;6.10;99.90;;;;;;4944089;28;20118;-89
2023/04/07 01:03:20;;;;;;;16.15;14.85;;;6.10;99.90;;;;;;4944265;28;20115;-91
2023/04/07 01:05:59;;;;;;;16.15;14.65;;;6.10;99.90;;;;;;4944037;28;20126;-89
2023/04/07 01:08:38;;;;;;;16.27;14.68;;;6.20;99.90;;;;;;4944024;28;20064;-90
2023/04/07 01:11:30;;;;;;;16.42;14.90;;;6.10;99.90;;;;;;4943976;28;20039;-89
2023/04/07 01:13:59;;;;;;;15.30;13.98;;;6.10;99.90;;;;;;4944733;28;20037;-90
2023/04/07 01:16:49;;;;;;;14.50;13.30;;;6.10;99.90;;;;;;4945676;28;20082;-91
2023/04/07 01:19:25;;;;;;;14.88;13.57;;;6.10;99.90;;;;;;4944042;28;20043;-92
2023/04/07 01:21:59;;;;;;;15.30;13.90;;;6.20;99.90;;;;;;4944160;28;20563;-93
2023/04/07 01:24:54;;;;;;;14.90;13.45;;;6.10;99.90;;;;;;4959591;28;20038;-91
2023/04/07 01:27:35;;;;;;;16.15;13.95;;;6.20;99.90;;;;;;4959363;28;20030;-90
2023/04/07 01:30:03;;;;;;;15.07;13.75;;;6.20;99.90;;;;;;4959509;28;20571;-90
2023/04/07 01:32:31;;;;;;;14.65;13.43;;;6.20;99.90;;;;;;4943407;28;20081;-91
2023/04/07 01:34:59;;;;;;;14.57;13.20;;;6.20;99.90;;;;;;4943610;28;20030;-89
2023/04/07 01:37:27;;;;;;;15.15;13.63;;;6.20;99.90;;;;;;4943390;28;20023;-90
2023/04/07 01:39:54;;;;;;;14.60;13.18;;;6.10;99.90;;;;;;4959177;28;20117;-91
2023/04/07 01:42:21;;;;;;;14.65;13.43;;;6.10;99.90;;;;;;4943244;28;20027;-90
2023/04/07 01:44:49;;;;;;;14.57;13.32;;;6.00;99.90;;;;;;4959121;28;20045;-90
2023/04/07 01:47:16;;;;;;;16.17;12.98;;;6.00;99.90;;;;;;4943245;28;20476;-90
2023/04/07 01:49:44;;;;;;;13.85;12.65;;;5.90;99.90;;;;;;4959269;28;20027;-93
2023/04/07 01:52:11;;;;;;;14.27;12.65;;;5.90;99.90;;;;;;4943009;28;20026;-89
2023/04/07 01:54:39;;;;;;;13.25;12.02;;;5.80;99.90;;;;;;4958989;28;20030;-90
2023/04/07 01:57:05;;;;;;;13.88;12.45;;;5.80;99.90;;;;;;4943069;28;20081;-92
2023/04/07 01:59:32;;;;;;;13.65;12.45;;;5.70;99.90;;;;;;4958861;28;20077;-91
2023/04/07 02:02:00;;;;;;;14.80;12.18;;;5.70;99.90;;;;;;4943262;28;20027;-90
2023/04/07 02:04:53;;;;;;;11.95;10.95;;;5.70;99.90;;;;;;4943100;28;20055;-90
2023/04/07 02:07:44;;;;;;;12.40;11.20;;;5.60;99.90;;;;;;4959112;28;20535;-91
2023/04/07 02:10:14;;;;;;;12.55;11.23;;;5.60;99.90;;;;;;4943024;28;20023;-91
2023/04/07 02:12:43;;;;;;;12.13;10.95;;;5.60;99.90;;;;;;4958664;28;20035;-90
2023/04/07 02:15:17;;;;;;;12.07;10.98;;;5.50;99.90;;;;;;4943293;28;20026;-90
2023/04/07 02:17:48;;;;;;;13.00;11.20;;;5.60;99.90;;;;;;4958612;28;20476;-91
2023/04/07 02:20:16;;;;;;;12.52;10.88;;;5.60;99.90;;;;;;4942719;28;20050;-90
2023/04/07 02:22:43;;;;;;;12.85;10.63;;;5.50;99.90;;;;;;4942359;28;20027;-89
2023/04/07 02:25:26;;;;;;;12.57;11.00;;;5.50;99.90;;;;;;4958512;28;20388;-89
2023/04/07 02:27:55;;;;;;;11.32;10.20;;;5.60;99.90;;;;;;4958477;28;20031;-89
2023/04/07 02:30:22;;;;;;;11.45;10.38;;;5.60;99.90;;;;;;4942860;28;20432;-91
2023/04/07 02:32:51;;;;;;;11.38;10.25;;;5.60;99.90;;;;;;4942510;28;20042;-89
2023/04/07 02:35:20;;;;;;;10.98;9.85;;;5.60;99.90;;;;;;4942669;28;20026;-90
2023/04/07 02:37:50;;;;;;;11.15;10.10;;;5.60;99.90;;;;;;4958467;28;20030;-90
2023/04/07 02:40:16;;;;;;;10.95;9.85;;;5.60;99.90;;;;;;4939221;29;20118;-90
2023/04/07 02:42:44;;;;;;;10.85;9.77;;;5.60;99.90;;;;;;4939026;29;20114;-89
2023/04/07 02:45:11;;;;;;;11.88;10.40;;;5.60;99.90;;;;;;4938427;29;20032;-91
2023/04/07 02:47:38;;;;;;;12.95;10.02;;;5.60;99.90;;;;;;4955007;29;20039;-90
2023/04/07 02:50:05;;;;;;;12.32;10.25;;;5.70;99.90;;;;;;4938900;29;20031;-92
2023/04/07 02:52:34;;;;;;;11.45;9.88;;;5.60;99.90;;;;;;4938346;29;20031;-91
2023/04/07 02:55:04;;;;;;;10.50;9.60;;;5.50;99.90;;;;;;4939042;29;20032;-90
2023/04/07 02:57:31;;;;;;;11.30;10.27;;;5.50;99.90;;;;;;4939025;29;20035;-90
2023/04/07 03:00:01;;;;;;;13.90;9.65;;;5.50;99.90;;;;;;4938847;29;20043;-91
2023/04/07 03:02:42;;;;;;;13.27;10.48;;;5.50;99.90;;;;;;4938835;29;20043;-90
2023/04/07 03:05:09;;;;;;;14.30;10.43;;;5.50;99.90;;;;;;4939043;29;20031;-91
2023/04/07 03:07:35;;;;;;;10.88;9.95;;;5.50;99.90;;;;;;4954860;29;20075;-90
2023/04/07 03:10:03;;;;;;;13.45;10.13;;;5.50;99.90;;;;;;4938973;29;20122;-90
2023/04/07 03:12:31;;;;;;;11.27;10.20;;;5.50;99.90;;;;;;4939062;29;20031;-89
2023/04/07 03:14:58;;;;;;;10.80;9.80;;;5.50;99.90;;;;;;4954730;29;20122;-91
2023/04/07 03:17:26;;;;;;;12.35;10.38;;;5.40;99.90;;;;;;4938598;29;20032;-90
2023/04/07 03:19:53;;;;;;;13.18;10.63;;;5.40;99.90;;;;;;4954723;29;20126;-91
2023/04/07 03:22:20;;;;;;;11.13;10.05;;;5.40;99.90;;;;;;4938750;29;20493;-92
2023/04/07 03:24:50;;;;;;;13.15;10.45;;;5.30;99.90;;;;;;4954156;29;20031;-90
2023/04/07 03:27:19;;;;;;;11.30;10.20;;;5.30;99.90;;;;;;4938766;29;20035;-90
2023/04/07 03:29:50;;;;;;;12.30;10.02;;;5.30;99.90;;;;;;4938753;29;20039;-92
2023/04/07 03:32:17;;;;;;;10.90;9.80;;;5.20;99.90;;;;;;4938503;29;20082;-90
2023/04/07 03:34:43;;;;;;;14.30;9.75;;;5.20;99.90;;;;;;4938622;29;20020;-92
2023/04/07 03:37:10;;;;;;;11.43;9.48;;;5.10;99.90;;;;;;4938791;29;20083;-89
2023/04/07 03:39:38;;;;;;;10.82;9.73;;;5.10;99.90;;;;;;4939243;29;20039;-91
2023/04/07 03:42:19;;;;;;;17.20;10.05;;;5.10;99.90;;;;;;4938686;29;20031;-91
2023/04/07 03:44:46;;;;;;;11.65;9.50;;;5.00;99.90;;;;;;4938540;29;20069;-91
2023/04/07 03:47:13;;;;;;;12.18;9.57;;;5.00;99.90;;;;;;4938596;29;20524;-90
2023/04/07 03:49:40;;;;;;;11.05;9.43;;;5.00;99.90;;;;;;4938559;29;20043;-91
2023/04/07 03:52:07;;;;;;;17.38;9.38;;;5.00;99.90;;;;;;4938576;29;20055;-91
2023/04/07 03:54:34;;;;;;;15.35;9.80;;;5.00;99.90;;;;;;4954651;29;20066;-91
2023/04/07 03:57:01;;;;;;;9.93;8.90;;;5.00;99.90;;;;;;4941668;29;20028;-90
2023/04/07 03:59:30;;;;;;;14.88;9.00;;;5.00;99.90;;;;;;4958088;29;20039;-88
2023/04/07 04:02:01;;;;;;;12.20;8.70;;;5.00;99.90;;;;;;4942049;29;20115;-91
2023/04/07 04:04:28;;;;;;;9.60;8.63;;;5.00;99.90;;;;;;4957731;28;20488;-90
2023/04/07 04:06:54;;;;;;;10.13;8.48;;;5.00;99.90;;;;;;4941755;29;20062;-91
2023/04/07 04:09:31;;;;;;;8.82;7.93;;;5.00;99.90;;;;;;4941741;29;20031;-89
2023/04/07 04:11:58;;;;;;;9.80;8.63;;;5.00;99.90;;;;;;4958631;28;20122;-89
2023/04/07 04:14:25;;;;;;;8.82;8.05;;;5.00;99.90;;;;;;4942082;29;20027;-90
2023/04/07 04:16:57;;;;;;;11.18;8.48;;;5.00;99.90;;;;;;4957640;29;20057;-87
2023/04/07 04:19:28;;;;;;;10.43;8.82;;;5.00;99.90;;;;;;4941548;29;20082;-92
2023/04/07 04:21:58;;;;;;;9.52;8.52;;;4.90;99.90;;;;;;4957348;28;20027;-92
2023/04/07 04:24:26;;;;;;;9.48;8.43;;;4.90;99.90;;;;;;4941590;29;20035;-90
2023/04/07 04:26:58;;;;;;;9.38;8.25;;;4.90;99.90;;;;;;4957562;29;20033;-91
2023/04/07 04:29:24;;;;;;;12.00;8.80;;;4.90;99.90;;;;;;4957376;29;20035;-91
2023/04/07 04:31:53;;;;;;;13.30;8.68;;;5.00;99.90;;;;;;4941377;29;20027;-92
2023/04/07 04:34:21;;;;;;;17.50;8.98;;;5.00;99.90;;;;;;4958315;29;20035;-91
2023/04/07 04:36:48;;;;;;;12.48;8.48;;;5.00;99.90;;;;;;4941439;29;20035;-91
2023/04/07 04:39:17;;;;;;;11.48;8.57;;;5.10;99.90;;;;;;4957114;29;20055;-90
2023/04/07 04:41:45;;;;;;;10.75;8.90;;;5.10;99.90;;;;;;4941039;29;20023;-89
2023/04/07 04:44:11;;;;;;;9.75;8.73;;;5.20;99.90;;;;;;4941052;29;20031;-89
2023/04/07 04:46:40;;;;;;;10.43;9.30;;;5.20;99.90;;;;;;4941184;29;20027;-91
2023/04/07 04:49:07;;;;;;;12.48;9.30;;;5.30;99.90;;;;;;4941311;29;20042;-89
2023/04/07 04:51:35;;;;;;;15.82;10.15;;;5.30;99.90;;;;;;4940855;28;20097;-91
2023/04/07 04:54:11;;;;;;;16.60;9.90;;;5.30;99.90;;;;;;4940890;29;20502;-89
2023/04/07 04:56:37;;;;;;;14.60;9.63;;;5.40;99.90;;;;;;4956873;29;20069;-92
2023/04/07 04:59:04;;;;;;;12.27;9.68;;;5.50;99.90;;;;;;4940694;29;20520;-88
2023/04/07 05:01:55;;;;;;;11.13;9.98;;;5.60;99.90;;;;;;4940692;29;20031;-89
2023/04/07 05:04:21;;;;;;;14.40;10.05;;;5.70;99.90;;;;;;4940539;29;20465;-90
2023/04/07 05:06:56;;;;;;;15.13;10.45;;;6.10;99.90;;;;;;4939984;29;20488;-88
2023/04/07 05:09:27;;;;;;;13.38;12.32;;;7.20;99.90;;;;;;4956602;29;20035;-89
2023/04/07 05:11:53;;;;;;;16.52;14.93;;;8.30;99.90;;;;;;4956666;28;20457;-90
2023/04/07 05:14:24;;;;;;;18.55;17.15;;;9.10;99.90;;;;;;4941211;29;20024;-90
2023/04/07 05:17:02;;;;;;;20.20;18.45;;;9.70;99.90;;;;;;4940484;29;20031;-90
2023/04/07 05:19:29;;;;;;;18.08;16.88;;;10.40;99.90;;;;;;4956559;29;20039;-90
2023/04/07 05:22:01;;;;;;;18.88;17.50;;;10.80;99.90;;;;;;4940389;29;20023;-90
2023/04/07 05:24:31;;;;;;;20.13;18.80;;;11.10;99.90;;;;;;4940615;29;20058;-88
2023/04/07 05:27:00;;;;;;;22.67;20.50;;;11.60;99.90;;;;;;4956657;29;20393;-89
2023/04/07 05:29:30;;;;;;;22.02;20.52;;;11.80;99.90;;;;;;4956522;29;20035;-91
2023/04/07 05:31:57;;;;;;;22.15;20.50;;;12.10;99.90;;;;;;4940147;29;20063;-91
2023/04/07 05:34:24;;;;;;;23.70;22.10;;;12.10;99.90;;;;;;4940449;29;20032;-89
2023/04/07 05:36:54;;;;;;;23.10;21.17;;;11.40;99.90;;;;;;4956202;29;20062;-89
2023/04/07 05:39:21;;;;;;;21.42;19.75;;;10.40;99.90;;;;;;4940093;29;20039;-89
2023/04/07 05:41:51;;;;;;;20.90;19.48;;;9.50;99.90;;;;;;4955882;28;20078;-88
2023/04/07 05:44:18;;;;;;;21.23;19.80;;;9.00;99.90;;;;;;4940029;29;20042;-91
2023/04/07 05:46:45;;;;;;;20.02;18.55;;;9.20;99.90;;;;;;4955955;29;20027;-90
2023/04/07 05:49:13;;;;;;;21.90;19.85;;;10.30;99.90;;;;;;4940366;29;20023;-92
2023/04/07 05:51:40;;;;;;;21.00;19.67;;;11.50;99.90;;;;;;4940016;29;20042;-91
2023/04/07 05:54:10;;;;;;;21.50;19.90;;;12.40;99.90;;;;;;4939891;29;20067;-90
2023/04/07 05:56:37;;;;;;;21.08;19.60;;;12.90;99.90;;;;;;4939685;29;20031;-90
2023/04/07 05:59:14;;;;;;;21.90;20.30;;;13.90;99.90;;;;;;4939475;29;20122;-91
2023/04/07 06:01:41;;;;;;;21.83;20.33;;;14.60;99.90;;;;;;4939469;29;20324;-90
2023/04/07 06:04:09;;;;;;;22.00;20.30;;;14.80;99.90;;;;;;4939660;29;20066;-91
2023/04/07 06:06:37;;;;;;;21.90;20.48;;;14.20;99.90;;;;;;4939581;29;20078;-89
2023/04/07 06:09:03;;;;;;;22.15;20.67;;;14.50;99.90;;;;;;4939497;29;20034;-91
2023/04/07 06:11:31;;;;;;;23.05;21.45;;;14.60;99.90;;;;;;4939590;28;20027;-91
2023/04/07 06:14:01;;;;;;;23.35;21.50;;;14.90;99.90;;;;;;4939367;29;20085;-89
2023/04/07 06:16:31;;;;;;;22.42;20.95;;;14.50;99.90;;;;;;4939345;29;20114;-92
2023/04/07 06:18:57;;;;;;;24.25;22.42;;;14.40;99.90;;;;;;4938420;29;20134;-90
2023/04/07 06:21:26;;;;;;;22.80;21.30;;;14.80;99.90;;;;;;4939282;28;20023;-90
2023/04/07 06:23:52;;;;;;;23.55;21.80;;;14.80;99.90;;;;;;4939475;29;20441;-89
2023/04/07 06:26:20;;;;;;;24.58;22.50;;;15.10;99.90;;;;;;4939382;29;20059;-90
2023/04/07 06:28:47;;;;;;;24.80;22.90;;;15.40;99.90;;;;;;4955254;29;20039;-90
2023/04/07 06:31:14;;;;;;;25.15;23.10;;;16.10;99.90;;;;;;4939246;28;20105;-90
2023/04/07 06:33:41;;;;;;;23.92;22.02;;;16.20;99.90;;;;;;4955256;29;20094;-91
2023/04/07 06:36:13;;;;;;;23.17;21.55;;;16.50;99.90;;;;;;4937814;29;20031;-91
2023/04/07 06:38:40;;;;;;;22.90;21.40;;;16.40;99.90;;;;;;4955034;29;20043;-91
2023/04/07 06:41:10;;;;;;;23.65;21.90;;;16.10;99.90;;;;;;4954844;29;20030;-90
2023/04/07 06:43:37;;;;;;;23.42;21.83;;;16.30;99.90;;;;;;4956244;29;20038;-91
2023/04/07 06:46:04;;;;;;;23.90;21.90;;;16.40;99.90;;;;;;4955308;29;20035;-91
2023/04/07 06:48:31;;;;;;;24.08;22.13;;;16.10;99.90;;;;;;4954969;29;20110;-90
2023/04/07 06:50:57;;;;;;;23.60;21.60;;;16.20;99.90;;;;;;4954964;29;20039;-92
2023/04/07 06:53:24;;;;;;;22.95;21.08;;;16.60;99.90;;;;;;4954938;29;20028;-91
2023/04/07 06:55:51;;;;;;;23.40;21.60;;;16.30;99.90;;;;;;4955654;29;20035;-92
2023/04/07 06:58:17;;;;;;;23.83;22.23;;;16.50;99.90;;;;;;4955436;29;20236;-92
2023/04/07 07:00:44;;;;;;;23.38;21.60;;;17.20;99.90;;;;;;4955114;29;20039;-92
2023/04/07 07:03:10;;;;;;;23.30;21.65;;;17.00;99.90;;;;;;4954574;28;20046;-90
2023/04/07 07:05:43;;;;;;;22.83;21.15;;;17.10;99.90;;;;;;4958244;29;20035;-92
2023/04/07 07:08:10;;;;;;;23.40;21.60;;;16.70;99.90;;;;;;4956757;29;20031;-89
2023/04/07 07:10:38;;;;;;;23.42;21.90;;;17.10;99.90;;;;;;4939772;29;20059;-91
2023/04/07 07:13:05;;;;;;;23.75;21.88;;;17.10;99.90;;;;;;4955357;28;20090;-91
2023/04/07 07:15:31;;;;;;;23.33;21.58;;;17.30;99.90;;;;;;4955978;29;20047;-90
2023/04/07 07:17:58;;;;;;;23.50;21.70;;;17.00;99.90;;;;;;4971507;28;20035;-90
2023/04/07 07:20:24;;;;;;;22.15;20.70;;;17.10;99.90;;;;;;4972160;28;20065;-89
2023/04/07 07:22:51;;;;;;;23.38;21.63;;;16.90;99.90;;;;;;4971180;28;20027;-88
2023/04/07 19:29:17;;;;;;;34.15;26.52;;;7.70;99.90;;;;;;4900279;29;20516;-88
2023/04/07 19:31:43;;;;;;;37.53;27.42;;;7.60;99.90;;;;;;4901428;29;20169;-87
2023/04/07 19:34:10;;;;;;;38.83;30.02;;;7.70;99.90;;;;;;4901627;29;20037;-88
2023/04/07 19:36:36;;;;;;;40.53;30.98;;;7.80;99.90;;;;;;4901265;29;20112;-87
2023/04/07 19:39:04;;;;;;;43.90;33.70;;;7.90;99.90;;;;;;4883623;29;20052;-87
2023/04/07 19:41:30;;;;;;;39.67;31.83;;;8.00;99.90;;;;;;4855224;29;20025;-87
2023/04/07 19:43:57;;;;;;;42.05;30.63;;;7.90;99.90;;;;;;4882472;29;20044;-86
2023/04/07 19:46:24;;;;;;;42.00;30.45;;;7.80;99.90;;;;;;4860053;29;20029;-87
2023/04/07 19:48:50;;;;;;;45.22;33.15;;;7.60;99.90;;;;;;4864941;29;20033;-87
2023/04/07 19:51:17;;;;;;;39.60;31.40;;;7.40;99.90;;;;;;4867066;29;20037;-90
2023/04/07 19:53:44;;;;;;;39.58;31.17;;;7.40;99.90;;;;;;4867003;29;20072;-89
2023/04/07 19:56:12;;;;;;;39.70;30.83;;;7.30;99.90;;;;;;4866985;29;20029;-86
2023/04/07 19:58:39;;;;;;;43.08;30.70;;;7.30;99.90;;;;;;4866674;29;20084;-87
2023/04/07 20:01:19;;;;;;;40.25;32.35;;;7.30;99.90;;;;;;4866785;29;20040;-87
2023/04/07 20:03:46;;;;;;;42.83;32.80;;;7.10;99.90;;;;;;4866792;29;20127;-87
2023/04/07 20:06:13;;;;;;;44.20;34.35;;;7.00;99.90;;;;;;4866544;29;20491;-90
2023/04/07 20:08:40;;;;;;;43.03;33.22;;;6.90;99.90;;;;;;4866884;29;20029;-89
2023/04/07 20:11:10;;;;;;;46.03;35.17;;;6.80;99.90;;;;;;4866631;29;20040;-89
2023/04/07 20:13:40;;;;;;;51.03;34.15;;;6.80;99.90;;;;;;4866543;29;20029;-89
2023/04/07 20:16:07;;;;;;;46.45;35.67;;;6.80;99.90;;;;;;4866480;29;20029;-89
2023/04/07 20:18:33;;;;;;;47.40;34.33;;;6.70;99.90;;;;;;4866584;29;20061;-88
2023/04/07 20:21:01;;;;;;;48.00;35.28;;;6.70;99.90;;;;;;4866322;29;20037;-89
2023/04/07 20:23:28;;;;;;;45.10;32.97;;;6.70;99.90;;;;;;4866211;29;20501;-88
2023/04/07 20:25:55;;;;;;;49.72;34.45;;;6.70;99.90;;;;;;4866356;29;20072;-89
2023/04/07 20:28:23;;;;;;;47.95;33.40;;;6.70;99.90;;;;;;4866122;29;20048;-89
2023/04/07 20:30:50;;;;;;;45.30;32.55;;;6.70;99.90;;;;;;4866245;29;20065;-89
2023/04/07 20:33:16;;;;;;;42.63;32.45;;;6.60;99.90;;;;;;4866356;29;20081;-88
2023/04/07 20:35:43;;;;;;;40.50;31.55;;;6.60;99.90;;;;;;4866047;29;20037;-89
2023/04/07 20:38:10;;;;;;;43.05;32.38;;;6.60;99.90;;;;;;4865323;29;20097;-90
2023/04/07 20:40:37;;;;;;;40.72;32.30;;;6.50;99.90;;;;;;4866426;29;20047;-89
2023/04/07 20:43:04;;;;;;;42.20;31.98;;;6.30;99.90;;;;;;4866286;29;20503;-89
2023/04/07 20:45:32;;;;;;;44.03;34.20;;;6.30;99.90;;;;;;4865856;29;20033;-89
2023/04/07 20:47:58;;;;;;;43.85;35.17;;;6.20;99.90;;;;;;4865765;29;20029;-90
2023/04/07 20:50:25;;;;;;;52.60;36.35;;;6.20;99.90;;;;;;4865884;29;20033;-90
2023/04/07 20:52:52;;;;;;;48.95;35.38;;;6.10;99.90;;;;;;4865769;29;20033;-90
2023/04/07 20:55:19;;;;;;;50.88;36.85;;;6.10;99.90;;;;;;4865898;29;20033;-89
2023/04/07 20:57:47;;;;;;;50.90;35.25;;;6.10;99.90;;;;;;4865854;29;20033;-90
2023/04/07 21:00:14;;;;;;;46.70;35.00;;;6.00;99.90;;;;;;4865615;29;20124;-89
2023/04/07 21:02:41;;;;;;;46.38;33.70;;;6.00;99.90;;;;;;4865741;29;20037;-90
2023/04/07 21:05:08;;;;;;;42.63;33.25;;;6.00;99.90;;;;;;4865711;29;20088;-88
2023/04/07 21:07:35;;;;;;;53.08;39.22;;;6.00;99.90;;;;;;4865557;29;20037;-90
2023/04/07 21:10:02;;;;;;;50.00;36.00;;;5.90;99.90;;;;;;4865743;29;20033;-90
2023/04/07 21:12:29;;;;;;;50.55;34.03;;;5.90;99.90;;;;;;4865503;29;20085;-90
2023/04/07 21:14:55;;;;;;;47.83;32.97;;;5.90;99.90;;;;;;4865396;29;20033;-89
2023/04/07 21:17:22;;;;;;;48.80;33.15;;;5.90;99.90;;;;;;4865192;29;20033;-90
2023/04/07 21:19:48;;;;;;;44.30;32.08;;;5.90;99.90;;;;;;4865167;29;20046;-89
2023/04/07 21:22:15;;;;;;;42.08;31.17;;;5.90;99.90;;;;;;4865425;29;20056;-89
2023/04/07 21:24:42;;;;;;;46.67;31.48;;;5.80;99.90;;;;;;4865212;29;20029;-90
2023/04/07 21:27:08;;;;;;;42.78;30.73;;;5.80;99.90;;;;;;4865137;29;20101;-90
2023/04/07 21:29:35;;;;;;;42.45;31.73;;;5.70;99.90;;;;;;4865239;29;20051;-91
2023/04/07 21:32:01;;;;;;;41.35;30.73;;;5.70;99.90;;;;;;4865167;29;20040;-90
2023/04/07 21:34:28;;;;;;;42.45;31.05;;;5.70;99.90;;;;;;4865188;29;20025;-90
2023/04/07 21:36:58;;;;;;;46.58;33.63;;;5.70;99.90;;;;;;4865215;29;20037;-90
2023/04/07 21:39:24;;;;;;;47.17;34.05;;;5.70;99.90;;;;;;4865651;29;20553;-89
2023/04/07 21:41:51;;;;;;;48.85;32.70;;;5.70;99.90;;;;;;4865130;29;20029;-89
2023/04/07 21:44:19;;;;;;;43.88;31.95;;;5.70;99.90;;;;;;4864868;29;20039;-89
2023/04/07 21:46:47;;;;;;;46.15;32.65;;;5.70;99.90;;;;;;4864406;29;20033;-90
2023/04/07 21:49:16;;;;;;;42.67;32.05;;;5.70;99.90;;;;;;4864409;29;20029;-91
2023/04/07 21:51:43;;;;;;;42.83;33.00;;;5.70;99.90;;;;;;4864735;29;20055;-89
2023/04/07 21:54:10;;;;;;;51.92;33.22;;;5.70;99.90;;;;;;4864846;29;20037;-90
2023/04/07 21:56:36;;;;;;;42.70;30.73;;;5.60;99.90;;;;;;4864735;29;20037;-91
2023/04/07 21:59:03;;;;;;;45.17;31.60;;;5.70;99.90;;;;;;4866251;29;20402;-90
2023/04/07 22:01:29;;;;;;;44.33;30.98;;;5.60;99.90;;;;;;4864706;29;20116;-89
2023/04/07 22:04:00;;;;;;;43.28;31.02;;;5.60;99.90;;;;;;4864635;29;20036;-90
2023/04/07 22:06:26;;;;;;;43.90;31.20;;;5.50;99.90;;;;;;4864592;29;20037;-89
2023/04/07 22:08:53;;;;;;;45.80;31.10;;;5.50;99.90;;;;;;4864693;29;20118;-90
2023/04/07 22:11:20;;;;;;;47.13;31.58;;;5.50;99.90;;;;;;4864620;29;20033;-89
2023/04/07 22:13:46;;;;;;;46.10;32.53;;;5.50;99.90;;;;;;4864275;29;20123;-89
2023/04/07 22:16:13;;;;;;;47.30;31.90;;;5.40;99.90;;;;;;4864539;29;20040;-90
2023/04/07 22:18:39;;;;;;;46.92;31.98;;;5.40;99.90;;;;;;4864287;29;20025;-89
2023/04/07 22:21:06;;;;;;;46.78;32.17;;;5.40;99.90;;;;;;4864305;29;20120;-90
2023/04/07 22:23:33;;;;;;;47.90;32.47;;;5.40;99.90;;;;;;4864350;29;20479;-90
2023/04/07 22:26:00;;;;;;;44.53;31.20;;;5.30;99.90;;;;;;4864326;29;20116;-90
2023/04/07 22:28:27;;;;;;;44.63;31.55;;;5.30;99.90;;;;;;4864000;29;20186;-90
2023/04/07 22:30:53;;;;;;;49.28;33.38;;;5.30;99.90;;;;;;4864281;29;20427;-89
2023/04/07 22:33:20;;;;;;;43.38;30.92;;;5.20;99.90;;;;;;4864291;29;20168;-90
2023/04/07 22:35:48;;;;;;;43.80;30.48;;;5.20;99.90;;;;;;4864179;29;20033;-89
2023/04/07 22:38:16;;;;;;;39.58;30.60;;;5.20;99.90;;;;;;4864259;29;20040;-89
2023/04/07 22:40:44;;;;;;;45.72;32.67;;;5.20;99.90;;;;;;4864146;29;20066;-89
2023/04/07 22:43:11;;;;;;;40.25;30.92;;;5.20;99.90;;;;;;4864037;29;20132;-90
2023/04/07 22:45:37;;;;;;;43.40;30.30;;;5.20;99.90;;;;;;4863940;29;20053;-90
2023/04/07 22:48:04;;;;;;;45.17;30.63;;;5.30;99.90;;;;;;4863956;29;20049;-90
2023/04/07 22:50:30;;;;;;;42.78;31.80;;;5.20;99.90;;;;;;4863526;29;20037;-90
2023/04/07 22:52:57;;;;;;;40.80;30.15;;;5.20;99.90;;;;;;4879215;29;20053;-90
2023/04/07 22:55:24;;;;;;;43.60;30.42;;;5.20;99.90;;;;;;4879425;29;20495;-89
2023/04/07 22:57:50;;;;;;;47.47;30.35;;;5.20;99.90;;;;;;4879335;29;20059;-90
2023/04/07 23:00:17;;;;;;;50.53;30.40;;;5.20;99.90;;;;;;4879293;29;20037;-90
2023/04/07 23:02:43;;;;;;;44.80;30.33;;;5.20;99.90;;;;;;4882497;29;20033;-89
2023/04/07 23:05:10;;;;;;;44.92;31.02;;;5.10;99.90;;;;;;4883200;29;20029;-89
2023/04/07 23:07:36;;;;;;;41.08;29.00;;;5.20;99.90;;;;;;4883051;29;20064;-89
2023/04/07 23:10:04;;;;;;;42.75;30.20;;;5.10;99.90;;;;;;4883017;29;20479;-89
2023/04/07 23:12:31;;;;;;;44.08;29.30;;;5.10;99.90;;;;;;4883243;29;20041;-90
2023/04/07 23:14:57;;;;;;;42.38;29.67;;;5.10;99.90;;;;;;4883218;29;20061;-89
2023/04/07 23:17:23;;;;;;;42.90;30.65;;;5.10;99.90;;;;;;4883699;29;20044;-90
2023/04/07 23:19:50;;;;;;;44.10;30.20;;;5.00;99.90;;;;;;4883514;29;20406;-89
2023/04/07 23:22:16;;;;;;;44.92;29.25;;;5.10;99.90;;;;;;4882848;29;20120;-89
2023/04/07 23:24:43;;;;;;;43.17;29.17;;;5.10;99.90;;;;;;4882822;29;20037;-89
2023/04/07 23:27:10;;;;;;;45.08;30.55;;;5.00;99.90;;;;;;4882492;29;21487;-90
2023/04/07 23:29:36;;;;;;;45.30;31.25;;;5.00;99.90;;;;;;4882849;29;20033;-89
2023/04/07 23:32:03;;;;;;;50.47;32.67;;;5.00;99.90;;;;;;4882850;29;20490;-89
2023/04/07 23:34:29;;;;;;;48.35;33.72;;;5.00;99.90;;;;;;4882583;29;20032;-90
2023/04/07 23:36:56;;;;;;;53.63;35.60;;;5.00;99.90;;;;;;4882834;29;20058;-88
2023/04/07 23:39:22;;;;;;;49.00;35.05;;;5.00;99.90;;;;;;4882755;29;20033;-90
2023/04/07 23:41:49;;;;;;;60.08;37.28;;;5.00;99.90;;;;;;4882690;29;20482;-90
2023/04/07 23:44:16;;;;;;;51.33;37.10;;;4.90;99.90;;;;;;4882646;29;20179;-89
2023/04/07 23:46:42;;;;;;;52.75;35.20;;;4.90;99.90;;;;;;4882537;29;20063;-91
2023/04/07 23:49:09;;;;;;;50.40;34.47;;;4.80;99.90;;;;;;4882783;29;20029;-90
2023/04/07 23:51:35;;;;;;;51.15;35.42;;;4.80;99.90;;;;;;4882248;29;20096;-89
2023/04/07 23:54:02;;;;;;;54.35;36.35;;;4.90;99.90;;;;;;4882270;29;20070;-89
2023/04/07 23:56:28;;;;;;;61.97;38.08;;;4.90;99.90;;;;;;4882188;29;20036;-89
2023/04/07 23:58:55;;;;;;;48.72;35.08;;;4.80;99.90;;;;;;4882209;29;20037;-89
